createdAt,value
2019-01-20T00:00:55.738Z,1.76
2019-01-20T00:03:25.101Z,1.73
2019-01-20T00:05:54.491Z,1.69
2019-01-20T00:08:23.854Z,1.68
2019-01-20T00:10:53.563Z,1.66
2019-01-20T00:13:23.200Z,1.64
2019-01-20T00:15:52.841Z,1.62
2019-01-20T00:18:22.202Z,1.59
2019-01-20T00:20:51.563Z,1.57
2019-01-20T00:23:20.985Z,1.54
2019-01-20T00:25:50.359Z,1.53
2019-01-20T00:28:19.718Z,1.51
2019-01-20T00:30:49.393Z,1.46
2019-01-20T00:33:19.062Z,1.44
2019-01-20T00:35:48.756Z,1.40
2019-01-20T00:38:18.653Z,1.38
2019-01-20T00:40:48.034Z,1.35
2019-01-20T00:43:17.495Z,1.32
2019-01-20T00:45:47.195Z,1.30
2019-01-20T00:48:16.625Z,1.26
2019-01-20T00:50:45.985Z,1.23
2019-01-20T00:53:15.380Z,1.19
2019-01-20T00:55:45.021Z,1.19
2019-01-20T00:58:14.410Z,1.16
2019-01-20T01:00:44.120Z,1.17
2019-01-20T01:03:13.549Z,1.13
2019-01-20T01:05:42.929Z,1.14
2019-01-20T01:08:13.046Z,1.11
2019-01-20T01:10:42.427Z,1.10
2019-01-20T01:13:11.808Z,1.05
2019-01-20T01:15:41.256Z,1.01
2019-01-20T01:18:10.994Z,0.99
2019-01-20T01:20:40.508Z,0.98
2019-01-20T01:23:09.964Z,0.97
2019-01-20T01:25:39.395Z,0.95
2019-01-20T01:28:08.793Z,0.94
2019-01-20T01:30:38.497Z,0.92
2019-01-20T01:33:08.165Z,0.92
2019-01-20T01:35:37.542Z,0.93
2019-01-20T01:38:07.218Z,0.91
2019-01-20T01:40:36.608Z,0.91
2019-01-20T01:43:06.629Z,0.89
2019-01-20T01:45:36.412Z,0.91
2019-01-20T01:48:06.869Z,0.91
2019-01-20T01:50:36.572Z,0.90
2019-01-20T01:53:06.045Z,0.89
2019-01-20T01:55:35.426Z,0.89
2019-01-20T01:58:04.886Z,0.91
2019-01-20T02:00:34.608Z,0.92
2019-01-20T02:03:04.032Z,0.91
2019-01-20T02:05:33.382Z,0.91
2019-01-20T02:08:02.770Z,0.91
2019-01-20T02:10:32.165Z,0.91
2019-01-20T02:13:01.543Z,0.88
2019-01-20T02:15:31.063Z,0.88
2019-01-20T02:18:00.482Z,0.85
2019-01-20T02:20:32.819Z,0.87
2019-01-20T02:23:02.197Z,0.84
2019-01-20T02:25:31.590Z,0.83
2019-01-20T02:28:01.035Z,0.82
2019-01-20T02:30:30.880Z,0.82
2019-01-20T02:33:00.610Z,0.80
2019-01-20T02:35:29.979Z,0.78
2019-01-20T02:37:59.452Z,0.77
2019-01-20T02:40:28.927Z,0.75
2019-01-20T02:42:58.350Z,0.74
2019-01-20T02:45:27.706Z,0.74
2019-01-20T02:48:00.064Z,0.74
2019-01-20T02:50:29.493Z,0.73
2019-01-20T02:52:58.839Z,0.70
2019-01-20T02:55:28.290Z,0.70
2019-01-20T02:57:57.831Z,0.69
2019-01-20T03:00:27.301Z,0.69
2019-01-20T03:02:56.744Z,0.69
2019-01-20T03:05:26.219Z,0.70
2019-01-20T03:07:55.589Z,0.71
2019-01-20T03:10:24.976Z,0.70
2019-01-20T03:12:54.438Z,0.71
2019-01-20T03:15:23.889Z,0.72
2019-01-20T03:17:53.231Z,0.71
2019-01-20T03:20:23.656Z,0.70
2019-01-20T03:22:53.015Z,0.69
2019-01-20T03:25:22.743Z,0.67
2019-01-20T03:27:52.150Z,0.68
2019-01-20T03:30:23.281Z,0.65
2019-01-20T03:32:53.345Z,0.65
2019-01-20T03:35:25.081Z,0.63
2019-01-20T03:37:54.596Z,0.61
2019-01-20T03:40:24.087Z,0.58
2019-01-20T03:42:53.486Z,0.56
2019-01-20T03:45:22.860Z,0.55
2019-01-20T03:47:52.568Z,0.51
2019-01-20T03:50:23.377Z,0.51
2019-01-20T03:52:52.762Z,0.51
2019-01-20T03:55:22.147Z,0.51
2019-01-20T03:57:51.554Z,0.49
2019-01-20T04:00:23.634Z,0.51
2019-01-20T04:02:58.490Z,0.49
2019-01-20T04:05:27.934Z,0.46
2019-01-20T04:07:57.499Z,0.45
2019-01-20T04:10:26.964Z,0.45
2019-01-20T04:12:56.423Z,0.45
2019-01-20T04:15:25.917Z,0.43
2019-01-20T04:17:55.389Z,0.41
2019-01-20T04:20:24.889Z,0.37
2019-01-20T04:22:54.291Z,0.36
2019-01-20T04:25:23.797Z,0.35
2019-01-20T04:27:53.222Z,0.34
2019-01-20T04:30:22.588Z,0.31
2019-01-20T04:32:52.052Z,0.30
2019-01-20T04:35:21.437Z,0.29
2019-01-20T04:37:50.829Z,0.27
2019-01-20T04:40:22.307Z,0.25
2019-01-20T04:42:51.724Z,0.23
2019-01-20T04:45:21.529Z,0.22
2019-01-20T04:47:50.934Z,0.23
2019-01-20T04:50:23.134Z,0.21
2019-01-20T04:52:52.792Z,0.20
2019-01-20T04:55:22.311Z,0.19
2019-01-20T04:57:53.440Z,0.18
2019-01-20T05:00:25.713Z,0.17
2019-01-20T05:02:55.806Z,0.16
2019-01-20T05:05:25.601Z,0.14
2019-01-20T05:07:55.074Z,0.13
2019-01-20T05:10:24.546Z,0.10
2019-01-20T05:12:53.927Z,0.12
2019-01-20T05:15:24.421Z,0.13
2019-01-20T05:17:53.809Z,0.09
2019-01-20T05:20:23.350Z,0.09
2019-01-20T05:22:52.786Z,0.08
2019-01-20T05:25:22.114Z,0.06
2019-01-20T05:27:51.809Z,0.05
2019-01-20T05:30:25.651Z,0.05
2019-01-20T05:32:55.035Z,0.04
2019-01-20T05:35:24.750Z,0.04
2019-01-20T05:37:54.118Z,0.02
2019-01-20T05:40:23.582Z,0.04
2019-01-20T05:42:52.963Z,0.03
2019-01-20T05:45:24.753Z,0.01
2019-01-20T05:47:54.146Z,0.00
2019-01-20T05:50:23.620Z,-0.03
2019-01-20T05:52:52.992Z,-0.06
2019-01-20T05:55:22.398Z,-0.09
2019-01-20T05:57:51.773Z,-0.08
2019-01-20T06:00:27.770Z,-0.11
2019-01-20T06:02:57.168Z,-0.12
2019-01-20T06:05:26.582Z,-0.15
2019-01-20T06:07:56.038Z,-0.17
2019-01-20T06:10:25.433Z,-0.18
2019-01-20T06:12:54.823Z,-0.20
2019-01-20T06:15:24.647Z,-0.20
2019-01-20T06:17:54.344Z,-0.19
2019-01-20T06:20:23.799Z,-0.20
2019-01-20T06:22:53.599Z,-0.23
2019-01-20T06:25:23.069Z,-0.24
2019-01-20T06:28:11.754Z,-0.26
2019-01-20T06:30:41.134Z,-0.29
2019-01-20T06:33:10.539Z,-0.28
2019-01-20T06:35:40.244Z,-0.30
2019-01-20T06:38:09.750Z,-0.31
2019-01-20T06:40:39.208Z,-0.32
2019-01-20T06:43:08.969Z,-0.31
2019-01-20T06:45:38.459Z,-0.31
2019-01-20T06:48:08.090Z,-0.33
2019-01-20T06:50:37.495Z,-0.33
2019-01-20T06:53:06.915Z,-0.34
2019-01-20T06:55:36.567Z,-0.34
2019-01-20T06:58:06.138Z,-0.36
2019-01-20T07:00:36.544Z,-0.37
2019-01-20T07:03:06.086Z,-0.39
2019-01-20T07:05:35.713Z,-0.39
2019-01-20T07:08:05.292Z,-0.40
2019-01-20T07:10:35.233Z,-0.39
2019-01-20T07:13:09.158Z,-0.39
2019-01-20T07:15:36.029Z,-0.37
2019-01-20T07:18:05.539Z,-0.40
2019-01-20T07:20:34.984Z,-0.40
2019-01-20T07:23:04.381Z,-0.37
2019-01-20T07:25:33.767Z,-0.39
2019-01-20T07:28:03.280Z,-0.39
2019-01-20T07:30:32.691Z,-0.41
2019-01-20T07:33:04.238Z,-0.36
2019-01-20T07:35:33.727Z,-0.37
2019-01-20T07:38:03.461Z,-0.36
2019-01-20T07:40:33.067Z,-0.34
2019-01-20T07:43:02.484Z,-0.34
2019-01-20T07:45:31.933Z,-0.32
2019-01-20T07:48:01.402Z,-0.31
2019-01-20T07:50:30.894Z,-0.29
2019-01-20T07:53:00.350Z,-0.25
2019-01-20T07:55:29.882Z,-0.22
2019-01-20T07:58:01.146Z,-0.20
2019-01-20T08:00:31.169Z,-0.15
2019-01-20T08:03:00.642Z,-0.11
2019-01-20T08:05:30.386Z,-0.07
2019-01-20T08:08:01.545Z,-0.03
2019-01-20T08:10:31.330Z,0.05
2019-01-20T08:13:00.816Z,0.09
2019-01-20T08:15:30.284Z,0.13
2019-01-20T08:18:00.022Z,0.18
2019-01-20T08:20:29.491Z,0.24
2019-01-20T08:22:58.998Z,0.38
2019-01-20T08:25:28.421Z,0.65
2019-01-20T08:27:57.801Z,1.00
2019-01-20T08:30:28.789Z,1.44
2019-01-20T08:32:58.511Z,1.92
2019-01-20T08:35:28.231Z,2.43
2019-01-20T08:37:57.657Z,2.90
2019-01-20T08:40:29.253Z,3.30
2019-01-20T08:42:58.670Z,3.64
2019-01-20T08:45:45.002Z,3.97
2019-01-20T08:48:22.173Z,4.36
2019-01-20T08:50:51.702Z,4.65
2019-01-20T08:53:21.342Z,4.91
2019-01-20T08:55:50.706Z,5.14
2019-01-20T08:58:20.836Z,5.36
2019-01-20T09:00:58.416Z,5.49
2019-01-20T09:03:30.905Z,5.54
2019-01-20T09:06:02.450Z,5.62
2019-01-20T09:08:32.067Z,5.76
2019-01-20T09:11:01.564Z,5.98
2019-01-20T09:13:31.312Z,6.16
2019-01-20T09:16:00.752Z,6.36
2019-01-20T09:18:30.266Z,6.60
2019-01-20T09:20:59.707Z,6.69
2019-01-20T09:23:29.192Z,6.70
2019-01-20T09:25:58.558Z,6.72
2019-01-20T09:28:28.481Z,6.80
2019-01-20T09:30:58.015Z,6.97
2019-01-20T09:33:27.696Z,7.13
2019-01-20T09:35:58.187Z,7.28
2019-01-20T09:38:27.903Z,7.34
2019-01-20T09:40:57.411Z,7.39
2019-01-20T09:43:27.000Z,7.41
2019-01-20T09:45:56.708Z,7.42
2019-01-20T09:48:27.141Z,7.41
2019-01-20T09:50:56.656Z,7.46
2019-01-20T09:53:26.078Z,7.53
2019-01-20T09:55:55.577Z,7.58
2019-01-20T09:58:28.733Z,7.62
2019-01-20T10:01:02.979Z,7.65
2019-01-20T10:03:32.655Z,7.78
2019-01-20T10:06:02.231Z,7.88
2019-01-20T10:08:31.760Z,7.93
2019-01-20T10:11:01.306Z,8.00
2019-01-20T10:13:30.735Z,8.06
2019-01-20T10:16:00.151Z,8.11
2019-01-20T10:18:33.227Z,8.17
2019-01-20T10:21:02.784Z,8.15
2019-01-20T10:23:35.458Z,8.13
2019-01-20T10:26:05.460Z,8.12
2019-01-20T10:28:41.110Z,8.10
2019-01-20T10:31:10.858Z,8.12
2019-01-20T10:33:40.226Z,8.13
2019-01-20T10:36:09.930Z,8.16
2019-01-20T10:38:39.319Z,8.14
2019-01-20T10:41:08.856Z,8.11
2019-01-20T10:43:38.346Z,8.09
2019-01-20T10:46:08.127Z,8.07
2019-01-20T10:48:44.415Z,8.09
2019-01-20T10:51:14.034Z,8.06
2019-01-20T10:54:02.778Z,8.07
2019-01-20T10:56:32.396Z,8.07
2019-01-20T10:59:01.752Z,8.05
2019-01-20T11:01:31.456Z,8.00
2019-01-20T11:04:00.822Z,7.92
2019-01-20T11:12:33.024Z,7.53
2019-01-20T11:15:02.958Z,7.56
2019-01-20T11:17:32.629Z,7.58
2019-01-20T11:20:02.960Z,7.63
2019-01-20T11:22:32.542Z,7.65
2019-01-20T11:25:02.280Z,7.63
2019-01-20T11:27:32.038Z,7.60
2019-01-20T11:30:01.733Z,7.57
2019-01-20T11:32:32.921Z,7.54
2019-01-20T11:35:02.894Z,7.51
2019-01-20T11:37:32.753Z,7.51
2019-01-20T11:40:02.516Z,7.50
2019-01-20T11:42:32.188Z,7.48
2019-01-20T11:45:01.860Z,7.46
2019-01-20T11:47:41.796Z,7.43
2019-01-20T11:50:15.213Z,7.37
2019-01-20T11:52:47.800Z,7.30
2019-01-20T11:55:21.557Z,7.20
2019-01-20T11:58:02.958Z,7.05
2019-01-20T12:01:00.528Z,6.94
2019-01-20T12:03:07.905Z,6.85
2019-01-20T12:05:37.699Z,6.76
2019-01-20T12:08:07.600Z,6.66
2019-01-20T12:10:37.058Z,6.53
2019-01-20T12:13:08.103Z,6.41
2019-01-20T12:15:37.643Z,6.28
2019-01-20T12:18:07.455Z,6.14
2019-01-20T12:20:36.842Z,6.04
2019-01-20T12:23:06.353Z,5.97
2019-01-20T12:25:35.788Z,5.88
2019-01-20T12:28:05.506Z,5.77
2019-01-20T12:30:39.777Z,5.68
2019-01-20T12:33:09.350Z,5.58
2019-01-20T12:35:38.716Z,5.50
2019-01-20T12:38:08.156Z,5.43
2019-01-20T12:40:41.550Z,5.34
2019-01-20T12:43:11.377Z,5.28
2019-01-20T12:45:41.089Z,5.18
2019-01-20T12:48:12.426Z,5.11
2019-01-20T12:50:44.394Z,5.02
2019-01-20T12:53:13.647Z,4.98
2019-01-20T12:55:43.139Z,4.92
2019-01-20T12:58:15.204Z,4.92
2019-01-20T13:00:44.982Z,4.88
2019-01-20T13:03:16.964Z,4.84
2019-01-20T13:05:48.575Z,4.81
2019-01-20T13:08:18.053Z,4.81
2019-01-20T13:10:47.670Z,4.82
2019-01-20T13:13:20.411Z,4.81
2019-01-20T13:15:49.882Z,4.78
2019-01-20T13:18:19.292Z,4.76
2019-01-20T13:20:49.807Z,4.76
2019-01-20T13:23:40.630Z,4.77
2019-01-20T13:26:11.772Z,4.72
2019-01-20T13:28:44.359Z,4.69
2019-01-20T13:31:14.907Z,4.68
2019-01-20T13:33:49.006Z,4.68
2019-01-20T13:36:21.039Z,4.70
2019-01-20T13:38:50.639Z,4.73
2019-01-20T13:41:20.299Z,4.74
2019-01-20T13:43:51.281Z,4.75
2019-01-20T13:46:20.838Z,4.75
2019-01-20T13:48:53.461Z,4.76
2019-01-20T13:51:24.265Z,4.74
2019-01-20T13:53:56.366Z,4.74
2019-01-20T13:56:25.993Z,4.73
2019-01-20T13:58:55.708Z,4.73
2019-01-20T14:01:25.330Z,4.72
2019-01-20T14:03:54.872Z,4.72
2019-01-20T14:06:26.473Z,4.70
2019-01-20T14:08:56.262Z,4.68
2019-01-20T14:11:28.368Z,4.67
2019-01-20T14:13:58.000Z,4.66
2019-01-20T14:16:31.672Z,4.65
2019-01-20T14:19:01.865Z,4.65
2019-01-20T14:21:31.472Z,4.63
2019-01-20T14:24:02.679Z,4.62
2019-01-20T14:26:32.128Z,4.60
2019-01-20T14:29:01.676Z,4.57
2019-01-20T14:31:31.311Z,4.56
2019-01-20T14:34:01.143Z,4.57
2019-01-20T14:36:30.801Z,4.55
2019-01-20T14:39:01.742Z,4.53
2019-01-20T14:41:31.340Z,4.53
2019-01-20T14:44:02.169Z,4.51
2019-01-20T14:46:32.590Z,4.49
2019-01-20T14:49:01.977Z,4.50
2019-01-20T14:51:31.361Z,4.50
2019-01-20T14:54:00.993Z,4.48
2019-01-20T14:56:30.385Z,4.47
2019-01-20T14:58:59.767Z,4.46
2019-01-20T15:01:29.147Z,4.46
2019-01-20T15:03:58.703Z,4.45
2019-01-20T15:06:32.960Z,4.42
2019-01-20T15:09:02.539Z,4.41
2019-01-20T15:11:31.984Z,4.38
2019-01-20T15:14:01.651Z,4.37
2019-01-20T15:16:31.373Z,4.36
2019-01-20T15:19:00.756Z,4.37
2019-01-20T15:21:31.536Z,4.36
2019-01-20T15:24:01.776Z,4.34
2019-01-20T15:27:05.072Z,4.35
2019-01-20T15:29:18.181Z,4.31
2019-01-20T15:31:54.082Z,4.31
2019-01-20T15:34:26.354Z,4.29
2019-01-20T15:37:00.444Z,4.28
2019-01-20T15:39:32.319Z,4.26
2019-01-20T15:42:05.696Z,4.23
2019-01-20T15:44:36.835Z,4.23
2019-01-20T15:47:11.549Z,4.19
2019-01-20T15:49:43.589Z,4.18
2019-01-20T15:52:15.417Z,4.16
2019-01-20T15:54:48.580Z,4.14
2019-01-20T15:57:24.483Z,4.11
2019-01-20T15:59:59.767Z,4.09
2019-01-20T16:02:30.038Z,4.04
2019-01-20T16:04:59.897Z,4.00
2019-01-20T16:07:35.357Z,3.97
2019-01-20T16:11:17.393Z,3.95
2019-01-20T16:12:48.510Z,3.89
2019-01-20T16:15:25.528Z,3.87
2019-01-20T16:18:00.983Z,3.82
2019-01-20T16:20:34.483Z,3.78
2019-01-20T16:23:08.940Z,3.73
2019-01-20T16:25:40.908Z,3.69
2019-01-20T16:28:21.161Z,3.61
2019-01-20T16:30:50.937Z,3.53
2019-01-20T16:33:24.880Z,3.47
2019-01-20T16:36:00.137Z,3.42
2019-01-20T16:39:17.789Z,3.38
2019-01-20T16:41:32.637Z,3.31
2019-01-20T16:44:12.033Z,3.24
2019-01-20T16:46:46.212Z,3.16
2019-01-20T16:49:31.902Z,3.12
2019-01-20T16:52:06.586Z,3.06
2019-01-20T16:54:44.552Z,3.02
2019-01-20T16:57:25.062Z,3.00
2019-01-20T17:00:12.781Z,2.99
2019-01-20T17:02:51.978Z,2.97
2019-01-20T17:05:26.881Z,2.99
2019-01-20T17:08:11.007Z,3.00
2019-01-20T17:10:44.847Z,3.00
2019-01-20T17:13:16.174Z,3.02
2019-01-20T17:16:00.696Z,3.05
2019-01-20T17:18:33.488Z,3.04
2019-01-20T17:21:03.480Z,3.05
2019-01-20T17:23:39.948Z,3.04
2019-01-20T17:28:40.715Z,3.02
2019-01-20T17:31:10.353Z,2.97
2019-01-20T17:33:39.920Z,2.95
2019-01-20T17:36:11.165Z,2.93
2019-01-20T17:38:40.676Z,2.88
2019-01-20T17:41:10.489Z,2.87
2019-01-20T17:43:39.962Z,2.82
2019-01-20T17:46:09.564Z,2.81
2019-01-20T17:48:39.043Z,2.80
2019-01-20T17:51:08.465Z,2.78
2019-01-20T17:53:38.069Z,2.77
2019-01-20T17:56:07.588Z,2.77
2019-01-20T17:58:37.056Z,2.79
2019-01-20T18:01:26.452Z,2.82
2019-01-20T18:03:56.009Z,2.79
2019-01-20T18:06:25.556Z,2.79
2019-01-20T18:08:55.059Z,2.80
2019-01-20T18:11:24.513Z,2.80
2019-01-20T18:13:55.873Z,2.73
2019-01-20T18:16:25.631Z,2.70
2019-01-20T18:18:55.559Z,2.63
2019-01-20T18:21:25.136Z,2.60
2019-01-20T18:23:54.665Z,2.54
2019-01-20T18:26:24.679Z,2.49
2019-01-20T18:28:54.263Z,2.42
2019-01-20T18:31:24.760Z,2.36
2019-01-20T18:33:54.718Z,2.31
2019-01-20T18:36:24.714Z,2.26
2019-01-20T18:39:06.028Z,2.20
2019-01-20T18:41:42.225Z,2.12
2019-01-20T18:44:16.483Z,2.05
2019-01-20T18:46:46.098Z,2.02
2019-01-20T18:49:19.271Z,1.96
2019-01-20T18:51:49.377Z,1.90
2019-01-20T18:54:24.737Z,1.86
2019-01-20T18:56:54.251Z,1.77
2019-01-20T18:59:23.748Z,1.72
2019-01-20T19:01:53.254Z,1.68
2019-01-20T19:04:23.027Z,1.62
2019-01-20T19:06:52.556Z,1.59
2019-01-20T19:09:26.299Z,1.56
2019-01-20T19:11:56.072Z,1.51
2019-01-20T19:14:27.947Z,1.48
2019-01-20T19:16:59.967Z,1.46
2019-01-20T19:19:36.811Z,1.43
2019-01-20T19:22:06.785Z,1.44
2019-01-20T19:24:41.057Z,1.44
2019-01-20T19:27:11.379Z,1.43
2019-01-20T19:29:41.294Z,1.42
2019-01-20T19:32:11.272Z,1.43
2019-01-20T19:34:40.890Z,1.41
2019-01-20T19:37:12.079Z,1.39
2019-01-20T19:39:42.745Z,1.37
2019-01-20T19:42:14.652Z,1.33
2019-01-20T19:44:44.706Z,1.29
2019-01-20T19:47:16.939Z,1.27
2019-01-20T19:49:46.393Z,1.24
2019-01-20T19:52:15.967Z,1.21
2019-01-20T19:54:45.498Z,1.18
2019-01-20T19:57:15.730Z,1.15
2019-01-20T19:59:45.376Z,1.14
2019-01-20T20:02:14.926Z,1.13
2019-01-20T20:04:46.321Z,1.15
2019-01-20T20:07:16.048Z,1.14
2019-01-20T20:09:46.168Z,1.12
2019-01-20T20:12:15.989Z,1.12
2019-01-20T20:14:45.585Z,1.12
2019-01-20T20:17:15.335Z,1.11
2019-01-20T20:19:45.108Z,1.11
2019-01-20T20:22:14.559Z,1.12
2019-01-20T20:24:44.068Z,1.13
2019-01-20T20:27:13.591Z,1.13
2019-01-20T20:29:44.980Z,1.11
2019-01-20T20:32:14.698Z,1.10
2019-01-20T20:34:44.548Z,1.10
2019-01-20T20:37:13.995Z,1.06
2019-01-20T20:39:43.460Z,1.03
2019-01-20T20:42:12.971Z,1.01
2019-01-20T20:44:42.728Z,0.98
2019-01-20T20:47:12.464Z,0.96
2019-01-20T20:49:42.570Z,0.94
2019-01-20T20:52:11.954Z,0.93
2019-01-20T20:54:41.355Z,0.91
2019-01-20T20:57:10.887Z,0.91
2019-01-20T20:59:40.290Z,0.89
2019-01-20T21:02:09.668Z,0.88
2019-01-20T21:04:39.334Z,0.87
2019-01-20T21:07:08.759Z,0.85
2019-01-20T21:09:38.273Z,0.86
2019-01-20T21:12:07.738Z,0.86
2019-01-20T21:14:37.144Z,0.86
2019-01-20T21:17:06.639Z,0.86
2019-01-20T21:19:36.050Z,0.83
2019-01-20T21:22:05.765Z,0.84
2019-01-20T21:24:35.242Z,0.81
2019-01-20T21:27:04.677Z,0.81
2019-01-20T21:29:34.147Z,0.81
2019-01-20T21:32:04.088Z,0.80
2019-01-20T21:34:33.519Z,0.81
2019-01-20T21:37:22.812Z,0.82
2019-01-20T21:39:52.480Z,0.78
2019-01-20T21:42:21.846Z,0.75
2019-01-20T21:44:51.220Z,0.70
2019-01-20T21:47:20.597Z,0.68
2019-01-20T21:49:49.973Z,0.65
2019-01-20T21:52:19.619Z,0.60
2019-01-20T21:54:48.987Z,0.57
2019-01-20T21:57:18.373Z,0.51
2019-01-20T21:59:47.735Z,0.48
2019-01-20T22:02:17.144Z,0.43
2019-01-20T22:04:46.863Z,0.39
2019-01-20T22:07:16.305Z,0.36
2019-01-20T22:09:46.058Z,0.33
2019-01-20T22:12:15.732Z,0.31
2019-01-20T22:14:45.099Z,0.28
2019-01-20T22:17:14.480Z,0.25
2019-01-20T22:19:43.870Z,0.24
2019-01-20T22:22:13.270Z,0.25
2019-01-20T22:24:42.645Z,0.24
2019-01-20T22:27:12.020Z,0.22
2019-01-20T22:29:41.627Z,0.19
2019-01-20T22:32:11.260Z,0.15
2019-01-20T22:34:40.635Z,0.12
2019-01-20T22:37:10.008Z,0.10
2019-01-20T22:39:39.380Z,0.07
2019-01-20T22:42:08.773Z,0.05
2019-01-20T22:44:38.392Z,0.02
2019-01-20T22:47:07.772Z,0.00
2019-01-20T22:49:37.192Z,-0.02
2019-01-20T22:52:06.880Z,-0.06
2019-01-20T22:54:36.256Z,-0.07
2019-01-20T22:57:05.875Z,-0.10
2019-01-20T22:59:35.497Z,-0.10
2019-01-20T23:02:05.513Z,-0.07
2019-01-20T23:04:35.219Z,-0.06
2019-01-20T23:07:05.578Z,-0.05
2019-01-20T23:09:35.626Z,-0.05
2019-01-20T23:12:06.092Z,-0.04
2019-01-20T23:14:35.810Z,-0.05
2019-01-20T23:17:07.986Z,-0.07
2019-01-20T23:19:37.230Z,-0.08
2019-01-20T23:22:06.868Z,-0.09
2019-01-20T23:24:36.244Z,-0.12
2019-01-20T23:27:06.535Z,-0.13
2019-01-20T23:29:36.253Z,-0.14
2019-01-20T23:32:06.250Z,-0.13
2019-01-20T23:34:36.338Z,-0.12
2019-01-20T23:37:06.816Z,-0.13
2019-01-20T23:39:36.426Z,-0.13
2019-01-20T23:42:06.474Z,-0.14
2019-01-20T23:44:36.400Z,-0.14
2019-01-20T23:47:06.453Z,-0.16
2019-01-20T23:49:36.485Z,-0.17
2019-01-20T23:52:06.496Z,-0.21
2019-01-20T23:54:36.582Z,-0.23
2019-01-20T23:57:06.671Z,-0.24
2019-01-20T23:59:36.638Z,-0.26
